createdAt,value
2023-01-29T00:00:29.004Z,18
2023-01-29T00:01:46.062Z,14
2023-01-29T00:03:03.013Z,14
2023-01-29T00:04:19.972Z,14
2023-01-29T00:05:36.974Z,12
2023-01-29T00:06:54.023Z,12
2023-01-29T00:08:10.999Z,12
2023-01-29T00:09:27.994Z,13
2023-01-29T00:10:45.001Z,13
2023-01-29T00:12:02.027Z,13
2023-01-29T00:13:19.047Z,13
2023-01-29T00:14:36.000Z,13
2023-01-29T00:15:52.988Z,12
2023-01-29T00:17:10.137Z,13
2023-01-29T00:18:27.014Z,13
2023-01-29T00:19:44.001Z,13
2023-01-29T00:21:00.999Z,13
2023-01-29T00:22:18.070Z,14
2023-01-29T00:23:35.001Z,14
2023-01-29T00:24:52.025Z,14
2023-01-29T00:26:09.002Z,14
2023-01-29T00:27:26.038Z,14
2023-01-29T00:28:44.629Z,13
2023-01-29T00:30:03.442Z,13
2023-01-29T00:31:21.128Z,14
2023-01-29T00:32:38.087Z,14
2023-01-29T00:33:55.080Z,14
2023-01-29T00:35:12.046Z,14
2023-01-29T00:36:29.049Z,16
2023-01-29T00:37:46.038Z,17
2023-01-29T00:39:03.013Z,16
2023-01-29T00:40:20.103Z,17
2023-01-29T00:41:37.045Z,17
2023-01-29T00:42:54.023Z,17
2023-01-29T00:44:11.023Z,17
2023-01-29T00:45:28.054Z,16
2023-01-29T00:46:45.058Z,16
2023-01-29T00:48:02.057Z,16
2023-01-29T00:49:19.031Z,16
2023-01-29T00:50:36.117Z,16
2023-01-29T00:51:53.049Z,16
2023-01-29T00:53:10.055Z,16
2023-01-29T00:54:27.047Z,16
2023-01-29T00:55:44.040Z,16
2023-01-29T00:57:01.056Z,16
2023-01-29T00:58:18.497Z,16
2023-01-29T00:59:37.911Z,16
2023-01-29T01:00:55.094Z,16
2023-01-29T01:02:13.468Z,16
2023-01-29T01:03:32.900Z,16
2023-01-29T01:04:52.750Z,16
2023-01-29T01:06:11.505Z,17
2023-01-29T01:07:30.180Z,17
2023-01-29T01:08:47.647Z,17
2023-01-29T01:10:04.098Z,17
2023-01-29T01:11:21.079Z,17
2023-01-29T01:12:38.093Z,17
2023-01-29T01:13:55.079Z,17
2023-01-29T01:15:12.071Z,16
2023-01-29T01:16:29.094Z,17
2023-01-29T01:17:46.070Z,17
2023-01-29T01:19:03.129Z,16
2023-01-29T01:20:20.076Z,16
2023-01-29T01:21:37.082Z,17
2023-01-29T01:22:54.083Z,16
2023-01-29T01:24:11.170Z,16
2023-01-29T01:25:28.069Z,16
2023-01-29T01:26:45.068Z,16
2023-01-29T01:28:02.095Z,17
2023-01-29T01:29:19.110Z,17
2023-01-29T01:30:36.103Z,17
2023-01-29T01:31:53.130Z,17
2023-01-29T01:33:10.098Z,17
2023-01-29T01:34:27.156Z,16
2023-01-29T01:35:44.117Z,17
2023-01-29T01:37:01.084Z,18
2023-01-29T01:38:18.087Z,24
2023-01-29T01:39:35.097Z,24
2023-01-29T01:40:52.224Z,25
2023-01-29T01:42:09.095Z,21
2023-01-29T01:43:26.165Z,19
2023-01-29T01:44:43.082Z,19
2023-01-29T01:46:00.214Z,19
2023-01-29T01:47:17.107Z,18
2023-01-29T01:48:34.162Z,18
2023-01-29T01:49:51.166Z,18
2023-01-29T01:51:08.119Z,18
2023-01-29T01:52:25.120Z,17
2023-01-29T01:53:42.193Z,19
2023-01-29T01:54:59.109Z,18
2023-01-29T01:56:16.105Z,17
2023-01-29T01:57:33.118Z,16
2023-01-29T01:58:50.215Z,14
2023-01-29T02:00:07.117Z,14
2023-01-29T02:01:25.748Z,16
2023-01-29T02:02:41.126Z,17
2023-01-29T02:03:58.184Z,18
2023-01-29T02:05:15.133Z,18
2023-01-29T02:06:32.138Z,18
2023-01-29T02:07:49.130Z,17
2023-01-29T02:09:06.235Z,17
2023-01-29T02:10:23.252Z,17
2023-01-29T02:11:40.125Z,18
2023-01-29T02:12:57.135Z,18
2023-01-29T02:14:14.202Z,17
2023-01-29T02:15:31.138Z,18
2023-01-29T02:16:48.142Z,18
2023-01-29T02:18:05.164Z,17
2023-01-29T02:19:22.170Z,17
2023-01-29T02:20:39.202Z,18
2023-01-29T02:21:56.150Z,17
2023-01-29T02:23:13.149Z,18
2023-01-29T02:24:30.172Z,18
2023-01-29T02:25:47.206Z,18
2023-01-29T02:27:04.145Z,17
2023-01-29T02:28:21.168Z,18
2023-01-29T02:29:38.161Z,17
2023-01-29T02:30:55.284Z,17
2023-01-29T02:32:12.160Z,17
2023-01-29T02:33:29.174Z,17
2023-01-29T02:34:46.154Z,18
2023-01-29T02:36:03.299Z,18
2023-01-29T02:37:20.180Z,18
2023-01-29T02:38:37.176Z,18
2023-01-29T02:39:54.170Z,17
2023-01-29T02:41:11.249Z,17
2023-01-29T02:42:28.298Z,16
2023-01-29T02:43:45.184Z,16
2023-01-29T02:45:02.181Z,16
2023-01-29T02:46:19.210Z,16
2023-01-29T02:47:36.224Z,16
2023-01-29T02:48:53.179Z,17
2023-01-29T02:50:10.180Z,17
2023-01-29T02:51:27.228Z,18
2023-01-29T02:52:44.229Z,18
2023-01-29T02:54:01.203Z,18
2023-01-29T02:55:18.202Z,18
2023-01-29T02:56:35.186Z,17
2023-01-29T02:57:52.194Z,17
2023-01-29T02:59:09.208Z,17
2023-01-29T03:00:26.278Z,17
2023-01-29T03:01:43.213Z,16
2023-01-29T03:03:00.189Z,16
2023-01-29T03:04:17.204Z,17
2023-01-29T03:05:34.327Z,17
2023-01-29T03:06:51.249Z,17
2023-01-29T03:08:08.212Z,16
2023-01-29T03:09:25.214Z,16
2023-01-29T03:10:42.359Z,16
2023-01-29T03:11:59.270Z,14
2023-01-29T03:13:16.245Z,15
2023-01-29T03:14:33.201Z,14
2023-01-29T03:15:50.237Z,14
2023-01-29T03:17:07.273Z,14
2023-01-29T03:18:24.258Z,14
2023-01-29T03:19:41.216Z,13
2023-01-29T03:20:58.219Z,14
2023-01-29T03:22:15.271Z,13
2023-01-29T03:23:32.282Z,13
2023-01-29T03:24:49.224Z,11
2023-01-29T03:26:06.232Z,11
2023-01-29T03:27:23.217Z,11
2023-01-29T03:28:40.871Z,11
2023-01-29T03:29:57.225Z,11
2023-01-29T03:31:14.314Z,12
2023-01-29T03:32:31.242Z,12
2023-01-29T03:33:48.262Z,12
2023-01-29T03:35:05.250Z,11
2023-01-29T03:36:22.245Z,11
2023-01-29T03:37:39.283Z,11
2023-01-29T03:38:56.283Z,12
2023-01-29T03:40:13.620Z,10
2023-01-29T03:41:30.296Z,9
2023-01-29T03:42:47.317Z,8
2023-01-29T03:44:04.305Z,9
2023-01-29T03:45:21.256Z,8
2023-01-29T03:46:38.243Z,9
2023-01-29T03:47:55.246Z,8
2023-01-29T03:49:12.319Z,8
2023-01-29T03:50:29.267Z,8
2023-01-29T03:51:46.264Z,8
2023-01-29T03:53:03.273Z,9
2023-01-29T03:54:20.310Z,5
2023-01-29T03:55:37.343Z,5
2023-01-29T03:56:54.255Z,5
2023-01-29T03:58:11.267Z,5
2023-01-29T03:59:28.289Z,6
2023-01-29T04:00:45.265Z,6
2023-01-29T04:02:02.305Z,5
2023-01-29T04:03:19.278Z,5
2023-01-29T04:04:36.329Z,5
2023-01-29T04:05:53.268Z,5
2023-01-29T04:07:10.309Z,6
2023-01-29T04:08:27.309Z,6
2023-01-29T04:09:44.329Z,8
2023-01-29T04:11:01.297Z,6
2023-01-29T04:12:18.267Z,5
2023-01-29T04:13:35.293Z,5
2023-01-29T04:14:52.310Z,4
2023-01-29T04:16:09.356Z,5
2023-01-29T04:17:26.308Z,5
2023-01-29T04:18:43.331Z,5
2023-01-29T04:20:00.359Z,5
2023-01-29T04:21:17.302Z,4
2023-01-29T04:22:34.291Z,4
2023-01-29T04:23:51.290Z,4
2023-01-29T04:25:08.357Z,4
2023-01-29T04:26:25.307Z,4
2023-01-29T04:27:42.364Z,5
2023-01-29T04:28:59.340Z,6
2023-01-29T04:30:16.546Z,8
2023-01-29T04:31:33.744Z,5
2023-01-29T04:32:50.317Z,4
2023-01-29T04:34:07.303Z,3
2023-01-29T04:35:24.302Z,3
2023-01-29T04:36:41.393Z,3
2023-01-29T04:37:58.311Z,3
2023-01-29T04:39:15.310Z,3
2023-01-29T04:40:32.324Z,3
2023-01-29T04:41:49.351Z,3
2023-01-29T04:43:06.325Z,3
2023-01-29T04:44:23.321Z,3
2023-01-29T04:45:40.360Z,3
2023-01-29T04:46:57.327Z,3
2023-01-29T04:48:14.331Z,3
2023-01-29T04:49:31.327Z,3
2023-01-29T04:50:48.352Z,3
2023-01-29T04:52:05.323Z,3
2023-01-29T04:53:22.329Z,3
2023-01-29T04:54:39.333Z,3
2023-01-29T04:55:56.366Z,3
2023-01-29T04:57:13.503Z,3
2023-01-29T04:58:30.334Z,3
2023-01-29T04:59:47.361Z,3
2023-01-29T05:01:04.394Z,2
2023-01-29T05:02:21.380Z,3
2023-01-29T05:03:38.346Z,3
2023-01-29T05:04:55.366Z,4
2023-01-29T05:06:12.441Z,3
2023-01-29T05:07:29.354Z,3
2023-01-29T05:08:46.344Z,3
2023-01-29T05:10:03.363Z,3
2023-01-29T05:11:20.384Z,4
2023-01-29T05:12:37.396Z,4
2023-01-29T05:13:54.360Z,5
2023-01-29T05:15:11.362Z,4
2023-01-29T05:16:28.385Z,4
2023-01-29T05:17:45.360Z,4
2023-01-29T05:19:02.358Z,5
2023-01-29T05:20:19.439Z,5
2023-01-29T05:21:36.370Z,6
2023-01-29T05:22:53.470Z,6
2023-01-29T05:24:10.412Z,6
2023-01-29T05:25:27.423Z,10
2023-01-29T05:26:44.380Z,10
2023-01-29T05:28:01.402Z,8
2023-01-29T05:29:18.379Z,7
2023-01-29T05:30:35.467Z,6
2023-01-29T05:31:52.456Z,6
2023-01-29T05:33:09.396Z,6
2023-01-29T05:34:26.387Z,5
2023-01-29T05:35:43.425Z,5
2023-01-29T05:37:00.395Z,5
2023-01-29T05:38:17.419Z,6
2023-01-29T05:39:34.405Z,5
2023-01-29T05:40:51.389Z,5
2023-01-29T05:42:08.390Z,5
2023-01-29T05:43:25.396Z,5
2023-01-29T05:44:42.464Z,5
2023-01-29T05:45:59.422Z,9
2023-01-29T05:47:16.984Z,8
2023-01-29T05:48:33.412Z,8
2023-01-29T05:49:50.493Z,5
2023-01-29T05:51:07.441Z,6
2023-01-29T05:52:24.440Z,8
2023-01-29T05:53:41.413Z,5
2023-01-29T05:54:58.418Z,4
2023-01-29T05:56:15.422Z,4
2023-01-29T05:57:32.425Z,4
2023-01-29T05:58:49.406Z,4
2023-01-29T06:00:06.405Z,8
2023-01-29T06:01:23.430Z,6
2023-01-29T06:02:40.500Z,6
2023-01-29T06:03:57.413Z,6
2023-01-29T06:05:14.468Z,5
2023-01-29T06:06:31.422Z,5
2023-01-29T06:07:48.476Z,5
2023-01-29T06:09:05.471Z,5
2023-01-29T06:10:22.410Z,5
2023-01-29T06:11:39.455Z,5
2023-01-29T06:12:56.458Z,6
2023-01-29T06:14:13.423Z,8
2023-01-29T06:15:30.456Z,6
2023-01-29T06:16:47.428Z,9
2023-01-29T06:18:04.479Z,8
2023-01-29T06:19:21.441Z,6
2023-01-29T06:20:38.441Z,6
2023-01-29T06:21:55.451Z,6
2023-01-29T06:23:12.466Z,6
2023-01-29T06:24:29.515Z,6
2023-01-29T06:25:46.429Z,6
2023-01-29T06:27:03.446Z,6
2023-01-29T06:28:20.475Z,8
2023-01-29T06:29:37.500Z,8
2023-01-29T06:30:54.514Z,10
2023-01-29T06:32:11.478Z,8
2023-01-29T06:33:28.487Z,8
2023-01-29T06:34:46.781Z,10
2023-01-29T06:36:02.462Z,9
2023-01-29T06:37:19.512Z,9
2023-01-29T06:38:36.457Z,9
2023-01-29T06:39:53.525Z,10
2023-01-29T06:41:10.464Z,10
2023-01-29T06:42:27.485Z,10
2023-01-29T06:43:44.448Z,8
2023-01-29T06:45:01.518Z,8
2023-01-29T06:46:18.485Z,8
2023-01-29T06:47:35.520Z,8
2023-01-29T06:48:52.510Z,8
2023-01-29T06:50:09.518Z,6
2023-01-29T06:51:26.510Z,6
2023-01-29T06:52:43.552Z,6
2023-01-29T06:54:00.474Z,5
2023-01-29T06:55:17.479Z,6
2023-01-29T06:56:34.484Z,6
2023-01-29T06:57:51.557Z,8
2023-01-29T06:59:08.495Z,8
2023-01-29T07:00:25.517Z,6
2023-01-29T07:01:42.661Z,6
2023-01-29T07:02:59.503Z,6
2023-01-29T07:04:16.481Z,5
2023-01-29T07:05:33.594Z,6
2023-01-29T07:06:50.645Z,6
2023-01-29T07:08:07.530Z,5
2023-01-29T07:09:24.499Z,6
2023-01-29T07:10:41.672Z,5
2023-01-29T07:11:58.549Z,5
2023-01-29T07:13:15.521Z,5
2023-01-29T07:14:32.507Z,5
2023-01-29T07:15:49.542Z,5
2023-01-29T07:17:06.538Z,4
2023-01-29T07:18:23.537Z,5
2023-01-29T07:19:40.542Z,5
2023-01-29T07:20:57.540Z,5
2023-01-29T07:22:14.506Z,5
2023-01-29T07:23:31.549Z,5
2023-01-29T07:24:48.530Z,5
2023-01-29T07:26:05.574Z,5
2023-01-29T07:27:22.512Z,5
2023-01-29T07:28:39.584Z,5
2023-01-29T07:29:56.518Z,6
2023-01-29T07:31:13.625Z,5
2023-01-29T07:32:30.636Z,5
2023-01-29T07:33:47.567Z,5
2023-01-29T07:35:04.530Z,5
2023-01-29T07:36:21.532Z,5
2023-01-29T07:37:38.544Z,5
2023-01-29T07:38:55.569Z,5
2023-01-29T07:40:12.586Z,5
2023-01-29T07:41:29.551Z,5
2023-01-29T07:42:46.542Z,5
2023-01-29T07:44:03.539Z,5
2023-01-29T07:45:20.579Z,5
2023-01-29T07:46:37.575Z,5
2023-01-29T07:47:54.548Z,5
2023-01-29T07:49:11.541Z,4
2023-01-29T07:50:28.857Z,5
2023-01-29T07:51:45.742Z,5
2023-01-29T07:53:02.555Z,5
2023-01-29T07:54:19.856Z,6
2023-01-29T07:55:36.604Z,6
2023-01-29T07:56:53.708Z,6
2023-01-29T07:58:10.689Z,6
2023-01-29T07:59:27.581Z,5
2023-01-29T08:00:44.721Z,6
2023-01-29T08:02:01.709Z,6
2023-01-29T08:03:18.628Z,5
2023-01-29T08:04:35.602Z,6
2023-01-29T08:05:52.680Z,6
2023-01-29T08:07:09.613Z,10
2023-01-29T08:08:26.615Z,9
2023-01-29T08:09:43.599Z,9
2023-01-29T08:11:00.571Z,8
2023-01-29T08:12:17.659Z,8
2023-01-29T08:13:34.698Z,8
2023-01-29T08:14:51.695Z,9
2023-01-29T08:16:08.636Z,8
2023-01-29T08:17:25.708Z,6
2023-01-29T08:18:42.756Z,6
2023-01-29T08:19:59.674Z,6
2023-01-29T08:21:16.591Z,6
2023-01-29T08:22:33.578Z,9
2023-01-29T08:23:50.607Z,9
2023-01-29T08:25:08.554Z,9
2023-01-29T08:26:24.647Z,6
2023-01-29T08:27:41.678Z,6
2023-01-29T08:28:58.644Z,6
2023-01-29T08:30:16.403Z,6
2023-01-29T08:31:32.734Z,6
2023-01-29T08:32:49.637Z,6
2023-01-29T08:34:06.660Z,6
2023-01-29T08:35:23.631Z,9
2023-01-29T08:36:40.618Z,9
2023-01-29T08:37:57.623Z,9
2023-01-29T08:39:14.608Z,9
2023-01-29T08:40:31.751Z,9
2023-01-29T08:41:48.619Z,8
2023-01-29T08:43:07.100Z,9
2023-01-29T08:44:22.683Z,11
2023-01-29T08:45:39.729Z,12
2023-01-29T08:46:56.843Z,12
2023-01-29T08:48:13.610Z,9
2023-01-29T08:49:30.680Z,8
2023-01-29T08:50:48.015Z,11
2023-01-29T08:52:04.814Z,9
2023-01-29T08:53:21.710Z,10
2023-01-29T08:54:38.669Z,9
2023-01-29T08:55:55.952Z,9
2023-01-29T08:57:13.010Z,6
2023-01-29T08:58:29.826Z,6
2023-01-29T08:59:46.798Z,5
2023-01-29T09:01:04.025Z,6
2023-01-29T09:02:20.927Z,5
2023-01-29T09:03:37.784Z,5
2023-01-29T09:04:54.864Z,6
2023-01-29T09:06:11.729Z,6
2023-01-29T09:07:28.915Z,8
2023-01-29T09:08:45.670Z,8
2023-01-29T09:10:02.730Z,9
2023-01-29T09:11:19.704Z,8
2023-01-29T09:12:36.740Z,9
2023-01-29T09:13:53.667Z,10
2023-01-29T09:15:10.976Z,10
2023-01-29T09:16:27.918Z,9
2023-01-29T09:17:44.865Z,9
2023-01-29T09:19:01.706Z,10
2023-01-29T09:20:18.762Z,10
2023-01-29T09:21:35.653Z,8
2023-01-29T09:22:52.763Z,8
2023-01-29T09:24:09.753Z,8
2023-01-29T09:25:26.721Z,8
2023-01-29T09:26:43.776Z,8
2023-01-29T09:28:00.687Z,8
2023-01-29T09:29:17.769Z,10
2023-01-29T09:30:34.839Z,8
2023-01-29T09:31:51.792Z,8
2023-01-29T09:33:08.700Z,9
2023-01-29T09:34:25.728Z,9
2023-01-29T09:35:42.763Z,9
2023-01-29T09:36:59.716Z,6
2023-01-29T09:38:16.685Z,6
2023-01-29T09:39:33.693Z,6
2023-01-29T09:40:50.781Z,8
2023-01-29T09:42:07.758Z,8
2023-01-29T09:43:24.696Z,8
2023-01-29T09:44:41.766Z,6
2023-01-29T09:45:58.844Z,8
2023-01-29T09:47:15.772Z,12
2023-01-29T09:48:32.721Z,30
2023-01-29T09:49:49.750Z,43
2023-01-29T09:51:06.800Z,19
2023-01-29T09:52:23.730Z,14
2023-01-29T09:53:40.742Z,13
2023-01-29T09:54:57.731Z,11
2023-01-29T09:56:14.751Z,9
2023-01-29T09:57:31.737Z,9
2023-01-29T09:58:48.724Z,10
2023-01-29T10:00:05.714Z,10
2023-01-29T10:01:22.846Z,11
2023-01-29T10:02:39.704Z,11
2023-01-29T10:03:56.803Z,14
2023-01-29T10:05:13.731Z,14
2023-01-29T10:06:30.898Z,9
2023-01-29T10:07:47.725Z,9
2023-01-29T10:09:04.812Z,20
2023-01-29T10:10:21.751Z,37
2023-01-29T10:11:38.740Z,19
2023-01-29T10:12:55.743Z,14
2023-01-29T10:14:12.770Z,27
2023-01-29T10:15:29.821Z,26
2023-01-29T10:16:46.799Z,25
2023-01-29T10:18:03.763Z,6
2023-01-29T10:19:20.733Z,9
2023-01-29T10:20:37.779Z,10
2023-01-29T10:21:54.821Z,16
2023-01-29T10:23:11.757Z,19
2023-01-29T10:24:28.723Z,17
2023-01-29T10:25:45.756Z,10
2023-01-29T10:27:02.818Z,10
2023-01-29T10:28:19.787Z,9
2023-01-29T10:29:36.764Z,14
2023-01-29T10:30:53.889Z,11
2023-01-29T10:32:10.892Z,12
2023-01-29T10:33:28.588Z,14
2023-01-29T10:34:44.763Z,13
2023-01-29T10:36:01.766Z,11
2023-01-29T10:37:18.794Z,11
2023-01-29T10:38:35.791Z,9
2023-01-29T10:39:52.807Z,12
2023-01-29T10:41:09.762Z,10
2023-01-29T10:42:26.784Z,8
2023-01-29T10:43:43.783Z,8
2023-01-29T10:45:00.828Z,9
2023-01-29T10:46:17.793Z,10
2023-01-29T10:47:34.835Z,11
2023-01-29T10:48:51.810Z,10
2023-01-29T10:50:08.835Z,9
2023-01-29T10:51:25.794Z,9
2023-01-29T10:52:42.858Z,10
2023-01-29T10:53:59.805Z,10
2023-01-29T10:55:17.138Z,11
2023-01-29T10:56:33.810Z,10
2023-01-29T10:57:50.766Z,10
2023-01-29T10:59:07.884Z,10
2023-01-29T11:00:24.808Z,10
2023-01-29T11:01:41.841Z,10
2023-01-29T11:02:58.929Z,10
2023-01-29T11:04:15.814Z,10
2023-01-29T11:05:32.910Z,35
2023-01-29T11:06:50.309Z,34
2023-01-29T11:08:06.776Z,14
2023-01-29T11:09:23.865Z,13
2023-01-29T11:10:40.783Z,12
2023-01-29T11:11:57.842Z,12
2023-01-29T11:13:14.789Z,15
2023-01-29T11:14:31.817Z,13
2023-01-29T11:15:48.791Z,39
2023-01-29T11:17:05.863Z,16
2023-01-29T11:18:22.812Z,14
2023-01-29T11:19:39.844Z,17
2023-01-29T11:20:57.130Z,13
2023-01-29T11:22:13.834Z,10
2023-01-29T11:23:30.868Z,11
2023-01-29T11:24:47.829Z,13
2023-01-29T11:26:04.841Z,11
2023-01-29T11:27:21.805Z,11
2023-01-29T11:28:38.878Z,12
2023-01-29T11:29:55.830Z,10
2023-01-29T11:31:12.942Z,10
2023-01-29T11:32:29.852Z,16
2023-01-29T11:33:46.866Z,16
2023-01-29T11:35:03.835Z,18
2023-01-29T11:36:20.844Z,17
2023-01-29T11:37:37.840Z,16
2023-01-29T11:38:54.967Z,18
2023-01-29T11:40:11.865Z,14
2023-01-29T11:41:28.820Z,13
2023-01-29T11:42:45.861Z,13
2023-01-29T11:44:02.874Z,12
2023-01-29T11:45:19.845Z,12
2023-01-29T11:46:36.918Z,16
2023-01-29T11:47:53.844Z,13
2023-01-29T11:49:20.459Z,14
2023-01-29T11:50:27.876Z,13
2023-01-29T11:51:44.891Z,16
2023-01-29T11:53:01.916Z,21
2023-01-29T11:54:18.883Z,21
2023-01-29T11:55:49.628Z,23
2023-01-29T11:56:52.900Z,17
2023-01-29T11:58:09.869Z,16
2023-01-29T11:59:26.905Z,14
2023-01-29T12:00:43.847Z,14
2023-01-29T12:02:00.879Z,13
2023-01-29T12:03:17.853Z,13
2023-01-29T12:04:34.928Z,13
2023-01-29T12:05:51.912Z,13
2023-01-29T12:07:08.866Z,17
2023-01-29T12:08:25.890Z,14
2023-01-29T12:09:42.931Z,14
2023-01-29T12:10:59.886Z,13
2023-01-29T12:12:16.873Z,13
2023-01-29T12:13:33.863Z,17
2023-01-29T12:14:50.901Z,16
2023-01-29T12:16:08.104Z,16
2023-01-29T12:17:24.908Z,17
2023-01-29T12:18:41.975Z,16
2023-01-29T12:19:58.872Z,16
2023-01-29T12:21:15.896Z,17
2023-01-29T12:22:32.922Z,19
2023-01-29T12:23:49.975Z,19
2023-01-29T12:25:06.917Z,18
2023-01-29T12:26:23.994Z,19
2023-01-29T12:27:40.901Z,18
2023-01-29T12:28:57.923Z,19
2023-01-29T12:30:15.245Z,19
2023-01-29T12:31:31.995Z,20
2023-01-29T12:32:48.934Z,20
2023-01-29T12:34:05.895Z,24
2023-01-29T12:35:22.888Z,25
2023-01-29T12:36:39.974Z,26
2023-01-29T12:37:56.903Z,27
2023-01-29T12:39:13.938Z,25
2023-01-29T12:40:30.929Z,25
2023-01-29T12:41:47.958Z,25
2023-01-29T12:43:04.954Z,24
2023-01-29T12:44:21.906Z,24
2023-01-29T12:45:38.937Z,25
2023-01-29T12:46:56.026Z,24
2023-01-29T12:48:13.185Z,31
2023-01-29T12:49:29.919Z,27
2023-01-29T12:50:46.926Z,26
2023-01-29T12:52:03.940Z,26
2023-01-29T12:53:20.963Z,27
2023-01-29T12:54:37.943Z,26
2023-01-29T12:55:54.954Z,32
2023-01-29T12:57:11.908Z,26
2023-01-29T12:58:29.057Z,27
2023-01-29T12:59:45.945Z,26
2023-01-29T13:01:03.004Z,25
2023-01-29T13:02:19.955Z,26
2023-01-29T13:03:37.084Z,37
2023-01-29T13:04:53.933Z,26
2023-01-29T13:06:10.932Z,26
2023-01-29T13:07:27.941Z,28
2023-01-29T13:08:44.998Z,27
2023-01-29T13:10:01.930Z,28
2023-01-29T13:11:18.954Z,25
2023-01-29T13:12:35.960Z,24
2023-01-29T13:13:54.395Z,21
2023-01-29T13:15:09.967Z,21
2023-01-29T13:16:27.010Z,21
2023-01-29T13:17:43.947Z,20
2023-01-29T13:19:01.190Z,21
2023-01-29T13:20:18.344Z,20
2023-01-29T13:21:35.007Z,20
2023-01-29T13:22:52.035Z,20
2023-01-29T13:24:09.165Z,21
2023-01-29T13:25:26.022Z,24
2023-01-29T13:26:43.009Z,47
2023-01-29T13:28:00.236Z,25
2023-01-29T13:29:17.043Z,21
2023-01-29T13:30:34.088Z,21
2023-01-29T13:31:51.040Z,21
2023-01-29T13:33:08.475Z,23
2023-01-29T13:34:25.012Z,21
2023-01-29T13:35:42.186Z,20
2023-01-29T13:36:59.458Z,20
2023-01-29T13:38:17.003Z,20
2023-01-29T13:39:34.295Z,20
2023-01-29T13:40:51.283Z,21
2023-01-29T13:42:08.254Z,20
2023-01-29T13:43:25.309Z,20
2023-01-29T13:44:42.196Z,18
2023-01-29T13:45:59.461Z,18
2023-01-29T13:47:16.183Z,18
2023-01-29T13:48:32.978Z,19
2023-01-29T13:49:50.426Z,18
2023-01-29T13:51:07.020Z,18
2023-01-29T13:52:24.315Z,18
2023-01-29T13:53:40.993Z,18
2023-01-29T13:54:58.305Z,18
2023-01-29T13:56:15.399Z,18
2023-01-29T13:57:32.009Z,19
2023-01-29T13:58:49.255Z,19
2023-01-29T14:00:06.253Z,20
2023-01-29T14:01:23.328Z,21
2023-01-29T14:02:40.018Z,25
2023-01-29T14:04:05.488Z,24
2023-01-29T14:05:14.263Z,24
2023-01-29T14:06:31.113Z,23
2023-01-29T14:07:48.263Z,29
2023-01-29T14:09:05.302Z,21
2023-01-29T14:10:22.369Z,21
2023-01-29T14:11:39.016Z,32
2023-01-29T14:12:56.103Z,42
2023-01-29T14:14:13.023Z,46
2023-01-29T14:15:30.036Z,49
2023-01-29T14:16:47.076Z,74
2023-01-29T14:18:04.086Z,60
2023-01-29T14:19:21.025Z,42
2023-01-29T14:20:45.399Z,34
2023-01-29T14:21:55.027Z,34
2023-01-29T14:23:12.047Z,28
2023-01-29T14:24:29.071Z,36
2023-01-29T14:25:46.032Z,28
2023-01-29T14:27:03.104Z,31
2023-01-29T14:28:20.043Z,27
2023-01-29T14:29:37.061Z,26
2023-01-29T14:30:54.113Z,26
2023-01-29T14:32:11.078Z,24
2023-01-29T14:33:28.051Z,25
2023-01-29T14:34:45.069Z,37
2023-01-29T14:36:02.048Z,26
2023-01-29T14:37:19.647Z,46
2023-01-29T14:38:37.351Z,41
2023-01-29T14:39:54.230Z,32
2023-01-29T14:41:11.318Z,44
2023-01-29T14:42:28.430Z,52
2023-01-29T14:43:45.299Z,64
2023-01-29T14:45:02.335Z,67
2023-01-29T14:46:19.134Z,44
2023-01-29T14:47:36.395Z,57
2023-01-29T14:48:54.363Z,60
2023-01-29T14:50:11.463Z,55
2023-01-29T14:51:29.351Z,48
2023-01-29T14:52:46.377Z,42
2023-01-29T14:54:03.194Z,55
2023-01-29T14:55:20.068Z,57
2023-01-29T14:56:37.356Z,63
2023-01-29T14:57:54.431Z,66
2023-01-29T14:59:11.080Z,66
2023-01-29T15:00:29.391Z,66
2023-01-29T15:01:46.186Z,75
2023-01-29T15:03:03.501Z,71
2023-01-29T15:04:20.189Z,65
2023-01-29T15:05:37.516Z,71
2023-01-29T15:06:54.103Z,67
2023-01-29T15:08:11.378Z,59
2023-01-29T15:09:35.853Z,51
2023-01-29T15:10:45.388Z,54
2023-01-29T15:12:02.348Z,57
2023-01-29T15:13:19.120Z,54
2023-01-29T15:14:36.307Z,58
2023-01-29T15:15:53.500Z,52
2023-01-29T15:17:10.125Z,56
2023-01-29T15:18:27.144Z,55
2023-01-29T15:19:44.346Z,59
2023-01-29T15:21:01.136Z,56
2023-01-29T15:22:18.096Z,59
2023-01-29T15:23:35.283Z,73
2023-01-29T15:24:52.205Z,73
2023-01-29T15:26:09.477Z,59
2023-01-29T15:27:26.117Z,54
2023-01-29T15:28:45.217Z,69
2023-01-29T15:30:00.274Z,58
2023-01-29T15:31:17.376Z,82
2023-01-29T15:32:34.393Z,67
2023-01-29T15:33:51.113Z,63
2023-01-29T15:35:08.342Z,64
2023-01-29T15:36:25.114Z,67
2023-01-29T15:37:42.162Z,58
2023-01-29T15:38:59.110Z,58
2023-01-29T15:40:16.151Z,58
2023-01-29T15:41:33.152Z,55
2023-01-29T15:42:50.146Z,59
2023-01-29T15:44:07.544Z,57
2023-01-29T15:45:25.338Z,58
2023-01-29T15:46:42.173Z,59
2023-01-29T15:47:59.155Z,58
2023-01-29T15:49:16.146Z,58
2023-01-29T15:50:33.171Z,63
2023-01-29T15:51:50.178Z,57
2023-01-29T15:53:07.193Z,56
2023-01-29T15:54:24.226Z,54
2023-01-29T15:55:41.166Z,60
2023-01-29T15:56:58.162Z,56
2023-01-29T15:58:15.332Z,56
2023-01-29T15:59:32.210Z,58
2023-01-29T16:00:49.312Z,57
2023-01-29T16:02:06.480Z,60
2023-01-29T16:03:23.398Z,60
2023-01-29T16:04:40.325Z,65
2023-01-29T16:05:57.225Z,58
2023-01-29T16:07:14.159Z,55
2023-01-29T16:08:31.362Z,49
2023-01-29T16:09:48.161Z,52
2023-01-29T16:11:05.262Z,58
2023-01-29T16:12:22.231Z,54
2023-01-29T16:13:39.174Z,49
2023-01-29T16:14:56.384Z,54
2023-01-29T16:16:13.316Z,56
2023-01-29T16:17:30.215Z,54
2023-01-29T16:18:58.025Z,56
2023-01-29T16:20:04.196Z,54
2023-01-29T16:21:21.206Z,54
2023-01-29T16:22:38.564Z,58
2023-01-29T16:23:55.267Z,62
2023-01-29T16:25:12.188Z,66
2023-01-29T16:26:29.223Z,70
2023-01-29T16:27:46.249Z,78
2023-01-29T16:29:03.183Z,75
2023-01-29T16:30:20.195Z,71
2023-01-29T16:31:37.354Z,71
2023-01-29T16:32:54.247Z,70
2023-01-29T16:34:11.193Z,60
2023-01-29T16:35:28.194Z,60
2023-01-29T16:36:45.228Z,60
2023-01-29T16:38:02.191Z,60
2023-01-29T16:39:19.226Z,62
2023-01-29T16:40:36.198Z,58
2023-01-29T16:41:53.212Z,58
2023-01-29T16:43:10.231Z,57
2023-01-29T16:44:27.229Z,60
2023-01-29T16:45:44.222Z,64
2023-01-29T16:47:01.208Z,59
2023-01-29T16:48:18.222Z,62
2023-01-29T16:49:35.252Z,60
2023-01-29T16:50:55.187Z,60
2023-01-29T16:52:09.242Z,60
2023-01-29T16:53:26.234Z,59
2023-01-29T16:54:43.249Z,62
2023-01-29T16:56:00.232Z,60
2023-01-29T16:57:17.267Z,62
2023-01-29T16:58:34.214Z,66
2023-01-29T16:59:51.259Z,65
2023-01-29T17:01:08.613Z,65
2023-01-29T17:02:25.259Z,67
2023-01-29T17:03:42.638Z,63
2023-01-29T17:05:00.231Z,64
2023-01-29T17:06:17.268Z,59
2023-01-29T17:07:34.294Z,58
2023-01-29T17:08:51.291Z,59
2023-01-29T17:10:08.237Z,57
2023-01-29T17:11:25.240Z,59
2023-01-29T17:12:42.278Z,57
2023-01-29T17:13:59.248Z,57
2023-01-29T17:15:16.521Z,55
2023-01-29T17:16:33.333Z,55
2023-01-29T17:17:50.347Z,55
2023-01-29T17:19:07.286Z,55
2023-01-29T17:20:24.266Z,-1
2023-01-29T17:21:41.376Z,56
2023-01-29T17:22:58.281Z,54
2023-01-29T17:24:15.279Z,54
2023-01-29T17:25:32.247Z,54
2023-01-29T17:26:49.359Z,51
2023-01-29T17:28:06.315Z,51
2023-01-29T17:29:23.258Z,50
2023-01-29T17:30:40.298Z,50
2023-01-29T17:31:57.328Z,49
2023-01-29T17:33:14.343Z,50
2023-01-29T17:34:31.257Z,48
2023-01-29T17:35:48.267Z,49
2023-01-29T17:37:05.292Z,48
2023-01-29T17:38:26.155Z,49
2023-01-29T17:39:39.278Z,48
2023-01-29T17:40:56.287Z,57
2023-01-29T17:42:13.302Z,50
2023-01-29T17:43:30.350Z,49
2023-01-29T17:44:47.275Z,55
2023-01-29T17:46:04.374Z,49
2023-01-29T17:47:21.437Z,51
2023-01-29T17:48:38.368Z,50
2023-01-29T17:49:55.337Z,50
2023-01-29T17:51:12.291Z,51
2023-01-29T17:52:29.279Z,50
2023-01-29T17:53:47.299Z,50
2023-01-29T17:55:03.383Z,51
2023-01-29T17:56:20.297Z,48
2023-01-29T17:57:37.290Z,49
2023-01-29T17:58:54.322Z,50
2023-01-29T18:00:11.376Z,49
2023-01-29T18:01:28.327Z,49
2023-01-29T18:02:45.331Z,48
2023-01-29T18:04:02.496Z,49
2023-01-29T18:05:19.717Z,49
2023-01-29T18:06:36.354Z,49
2023-01-29T18:07:53.303Z,48
2023-01-29T18:09:10.373Z,47
2023-01-29T18:10:27.335Z,47
2023-01-29T18:11:44.314Z,47
2023-01-29T18:13:01.457Z,47
2023-01-29T18:14:18.346Z,-1
2023-01-29T18:15:35.321Z,44
2023-01-29T18:16:52.319Z,42
2023-01-29T18:18:09.375Z,43
2023-01-29T18:19:26.419Z,43
2023-01-29T18:20:43.335Z,42
2023-01-29T18:22:00.317Z,41
2023-01-29T18:23:17.358Z,42
2023-01-29T18:24:34.359Z,40
2023-01-29T18:25:51.356Z,39
2023-01-29T18:27:08.367Z,39
2023-01-29T18:28:25.413Z,37
2023-01-29T18:29:42.375Z,39
2023-01-29T18:30:59.448Z,39